<?xml version="1.0" encoding="UTF-8" standalone="no" ?>
<gpx xmlns="http://www.topografix.com/GPX/1/1" xmlns:xsi="http://www.w3.org/2001/XMLSchema-instance" xsi:schemaLocation="http://www.topografix.com/GPX/1/1 http://www.topografix.com/GPX/1/1/gpx.xsd" version="1.1" creator="VisuGPX - https://www.visugpx.com">
  <metadata>
    <name>LA VRAIE CROIX</name>
    <desc><![CDATA[Départ parking prés de l\'église.]]></desc>
  </metadata>
  <trk>
    <name><![CDATA[LA VRAIE CROIX_1]]></name>
    <trkseg>
      <trkpt lat="47.68926" lon="-2.54242">
        <ele>259</ele>
        <time>2012-10-31T13:43:41</time>
      </trkpt>
      <trkpt lat="47.68925" lon="-2.54244">
        <ele>283</ele>
        <time>2012-10-31T13:44:11</time>
      </trkpt>
      <trkpt lat="47.68924" lon="-2.54252">
        <ele>283</ele>
        <time>2012-10-31T13:44:41</time>
      </trkpt>
      <trkpt lat="47.68924" lon="-2.54281">
        <ele>283</ele>
        <time>2012-10-31T13:45:11</time>
      </trkpt>
      <trkpt lat="47.68888" lon="-2.54272">
        <ele>282</ele>
        <time>2012-10-31T13:45:42</time>
      </trkpt>
      <trkpt lat="47.68879" lon="-2.5427">
        <ele>282</ele>
        <time>2012-10-31T13:46:12</time>
      </trkpt>
      <trkpt lat="47.68888" lon="-2.54324">
        <ele>280</ele>
        <time>2012-10-31T13:46:42</time>
      </trkpt>
      <trkpt lat="47.68876" lon="-2.54352">
        <ele>281</ele>
        <time>2012-10-31T13:47:12</time>
      </trkpt>
      <trkpt lat="47.68844" lon="-2.54362">
        <ele>281</ele>
        <time>2012-10-31T13:47:42</time>
      </trkpt>
      <trkpt lat="47.6882" lon="-2.54394">
        <ele>282</ele>
        <time>2012-10-31T13:48:12</time>
      </trkpt>
      <trkpt lat="47.68842" lon="-2.54443">
        <ele>282</ele>
        <time>2012-10-31T13:48:43</time>
      </trkpt>
      <trkpt lat="47.68863" lon="-2.54489">
        <ele>281</ele>
        <time>2012-10-31T13:49:13</time>
      </trkpt>
      <trkpt lat="47.68889" lon="-2.5453">
        <ele>282</ele>
        <time>2012-10-31T13:49:43</time>
      </trkpt>
      <trkpt lat="47.68905" lon="-2.54582">
        <ele>283</ele>
        <time>2012-10-31T13:50:13</time>
      </trkpt>
      <trkpt lat="47.68922" lon="-2.5462">
        <ele>283</ele>
        <time>2012-10-31T13:50:43</time>
      </trkpt>
      <trkpt lat="47.6894" lon="-2.54593">
        <ele>282</ele>
        <time>2012-10-31T13:51:14</time>
      </trkpt>
      <trkpt lat="47.68933" lon="-2.54634">
        <ele>284</ele>
        <time>2012-10-31T13:51:44</time>
      </trkpt>
      <trkpt lat="47.68913" lon="-2.54677">
        <ele>285</ele>
        <time>2012-10-31T13:52:14</time>
      </trkpt>
      <trkpt lat="47.68884" lon="-2.54714">
        <ele>288</ele>
        <time>2012-10-31T13:52:44</time>
      </trkpt>
      <trkpt lat="47.68877" lon="-2.5472">
        <ele>287</ele>
        <time>2012-10-31T13:53:14</time>
      </trkpt>
      <trkpt lat="47.6887" lon="-2.54741">
        <ele>289</ele>
        <time>2012-10-31T13:53:45</time>
      </trkpt>
      <trkpt lat="47.68871" lon="-2.54788">
        <ele>293</ele>
        <time>2012-10-31T13:54:15</time>
      </trkpt>
      <trkpt lat="47.6887" lon="-2.54838">
        <ele>297</ele>
        <time>2012-10-31T13:54:45</time>
      </trkpt>
      <trkpt lat="47.68842" lon="-2.5486">
        <ele>302</ele>
        <time>2012-10-31T13:55:15</time>
      </trkpt>
      <trkpt lat="47.6882" lon="-2.54827">
        <ele>304</ele>
        <time>2012-10-31T13:55:45</time>
      </trkpt>
      <trkpt lat="47.68809" lon="-2.54782">
        <ele>310</ele>
        <time>2012-10-31T13:56:16</time>
      </trkpt>
      <trkpt lat="47.68796" lon="-2.54738">
        <ele>313</ele>
        <time>2012-10-31T13:56:46</time>
      </trkpt>
      <trkpt lat="47.68774" lon="-2.54692">
        <ele>316</ele>
        <time>2012-10-31T13:57:16</time>
      </trkpt>
      <trkpt lat="47.68745" lon="-2.54648">
        <ele>316</ele>
        <time>2012-10-31T13:57:46</time>
      </trkpt>
      <trkpt lat="47.68711" lon="-2.54626">
        <ele>317</ele>
        <time>2012-10-31T13:58:16</time>
      </trkpt>
      <trkpt lat="47.68674" lon="-2.54607">
        <ele>320</ele>
        <time>2012-10-31T13:58:47</time>
      </trkpt>
      <trkpt lat="47.68652" lon="-2.54576">
        <ele>320</ele>
        <time>2012-10-31T13:59:17</time>
      </trkpt>
      <trkpt lat="47.68636" lon="-2.54523">
        <ele>318</ele>
        <time>2012-10-31T13:59:47</time>
      </trkpt>
      <trkpt lat="47.68623" lon="-2.54464">
        <ele>317</ele>
        <time>2012-10-31T14:00:17</time>
      </trkpt>
      <trkpt lat="47.68609" lon="-2.54402">
        <ele>316</ele>
        <time>2012-10-31T14:00:48</time>
      </trkpt>
      <trkpt lat="47.68595" lon="-2.54342">
        <ele>315</ele>
        <time>2012-10-31T14:01:18</time>
      </trkpt>
      <trkpt lat="47.68581" lon="-2.54284">
        <ele>316</ele>
        <time>2012-10-31T14:01:48</time>
      </trkpt>
      <trkpt lat="47.68567" lon="-2.5423">
        <ele>317</ele>
        <time>2012-10-31T14:02:18</time>
      </trkpt>
      <trkpt lat="47.68551" lon="-2.54187">
        <ele>316</ele>
        <time>2012-10-31T14:02:48</time>
      </trkpt>
      <trkpt lat="47.68534" lon="-2.54142">
        <ele>317</ele>
        <time>2012-10-31T14:03:19</time>
      </trkpt>
      <trkpt lat="47.68531" lon="-2.54082">
        <ele>318</ele>
        <time>2012-10-31T14:03:49</time>
      </trkpt>
      <trkpt lat="47.6853" lon="-2.54024">
        <ele>317</ele>
        <time>2012-10-31T14:04:19</time>
      </trkpt>
      <trkpt lat="47.68531" lon="-2.5397">
        <ele>317</ele>
        <time>2012-10-31T14:04:49</time>
      </trkpt>
      <trkpt lat="47.68533" lon="-2.53925">
        <ele>315</ele>
        <time>2012-10-31T14:05:20</time>
      </trkpt>
      <trkpt lat="47.68535" lon="-2.53875">
        <ele>313</ele>
        <time>2012-10-31T14:05:50</time>
      </trkpt>
      <trkpt lat="47.68518" lon="-2.53826">
        <ele>311</ele>
        <time>2012-10-31T14:06:20</time>
      </trkpt>
      <trkpt lat="47.68509" lon="-2.5376">
        <ele>309</ele>
        <time>2012-10-31T14:06:50</time>
      </trkpt>
      <trkpt lat="47.68507" lon="-2.53701">
        <ele>308</ele>
        <time>2012-10-31T14:07:20</time>
      </trkpt>
      <trkpt lat="47.68501" lon="-2.53646">
        <ele>306</ele>
        <time>2012-10-31T14:07:51</time>
      </trkpt>
      <trkpt lat="47.68483" lon="-2.53596">
        <ele>305</ele>
        <time>2012-10-31T14:08:21</time>
      </trkpt>
      <trkpt lat="47.68454" lon="-2.53554">
        <ele>304</ele>
        <time>2012-10-31T14:08:51</time>
      </trkpt>
      <trkpt lat="47.68429" lon="-2.53506">
        <ele>302</ele>
        <time>2012-10-31T14:09:21</time>
      </trkpt>
      <trkpt lat="47.68403" lon="-2.53468">
        <ele>301</ele>
        <time>2012-10-31T14:09:52</time>
      </trkpt>
      <trkpt lat="47.68389" lon="-2.53415">
        <ele>297</ele>
        <time>2012-10-31T14:10:22</time>
      </trkpt>
      <trkpt lat="47.68375" lon="-2.53362">
        <ele>296</ele>
        <time>2012-10-31T14:10:52</time>
      </trkpt>
      <trkpt lat="47.68362" lon="-2.5331">
        <ele>292</ele>
        <time>2012-10-31T14:11:22</time>
      </trkpt>
      <trkpt lat="47.68345" lon="-2.53256">
        <ele>290</ele>
        <time>2012-10-31T14:11:52</time>
      </trkpt>
      <trkpt lat="47.68355" lon="-2.53204">
        <ele>287</ele>
        <time>2012-10-31T14:12:23</time>
      </trkpt>
      <trkpt lat="47.68385" lon="-2.53182">
        <ele>284</ele>
        <time>2012-10-31T14:12:53</time>
      </trkpt>
      <trkpt lat="47.68417" lon="-2.53184">
        <ele>277</ele>
        <time>2012-10-31T14:13:23</time>
      </trkpt>
      <trkpt lat="47.68408" lon="-2.53173">
        <ele>274</ele>
        <time>2012-10-31T14:13:53</time>
      </trkpt>
      <trkpt lat="47.68395" lon="-2.5316">
        <ele>273</ele>
        <time>2012-10-31T14:14:23</time>
      </trkpt>
      <trkpt lat="47.68373" lon="-2.53148">
        <ele>274</ele>
        <time>2012-10-31T14:14:53</time>
      </trkpt>
      <trkpt lat="47.68339" lon="-2.53153">
        <ele>272</ele>
        <time>2012-10-31T14:15:24</time>
      </trkpt>
      <trkpt lat="47.68313" lon="-2.53162">
        <ele>273</ele>
        <time>2012-10-31T14:15:54</time>
      </trkpt>
      <trkpt lat="47.68295" lon="-2.5318">
        <ele>276</ele>
        <time>2012-10-31T14:16:24</time>
      </trkpt>
      <trkpt lat="47.68292" lon="-2.53217">
        <ele>280</ele>
        <time>2012-10-31T14:16:54</time>
      </trkpt>
      <trkpt lat="47.68285" lon="-2.53247">
        <ele>282</ele>
        <time>2012-10-31T14:17:24</time>
      </trkpt>
      <trkpt lat="47.6826" lon="-2.53251">
        <ele>287</ele>
        <time>2012-10-31T14:17:55</time>
      </trkpt>
      <trkpt lat="47.68223" lon="-2.53253">
        <ele>287</ele>
        <time>2012-10-31T14:18:25</time>
      </trkpt>
      <trkpt lat="47.68193" lon="-2.53246">
        <ele>287</ele>
        <time>2012-10-31T14:18:55</time>
      </trkpt>
      <trkpt lat="47.68153" lon="-2.53252">
        <ele>287</ele>
        <time>2012-10-31T14:19:25</time>
      </trkpt>
      <trkpt lat="47.68113" lon="-2.53262">
        <ele>285</ele>
        <time>2012-10-31T14:19:55</time>
      </trkpt>
      <trkpt lat="47.68082" lon="-2.53263">
        <ele>284</ele>
        <time>2012-10-31T14:20:26</time>
      </trkpt>
      <trkpt lat="47.68072" lon="-2.5324">
        <ele>280</ele>
        <time>2012-10-31T14:20:56</time>
      </trkpt>
      <trkpt lat="47.68072" lon="-2.53222">
        <ele>274</ele>
        <time>2012-10-31T14:21:26</time>
      </trkpt>
      <trkpt lat="47.68061" lon="-2.53218">
        <ele>273</ele>
        <time>2012-10-31T14:21:56</time>
      </trkpt>
      <trkpt lat="47.6803" lon="-2.53216">
        <ele>272</ele>
        <time>2012-10-31T14:22:27</time>
      </trkpt>
      <trkpt lat="47.67994" lon="-2.53214">
        <ele>272</ele>
        <time>2012-10-31T14:22:57</time>
      </trkpt>
      <trkpt lat="47.67955" lon="-2.53217">
        <ele>268</ele>
        <time>2012-10-31T14:23:27</time>
      </trkpt>
      <trkpt lat="47.67916" lon="-2.53218">
        <ele>267</ele>
        <time>2012-10-31T14:23:57</time>
      </trkpt>
      <trkpt lat="47.67881" lon="-2.53203">
        <ele>268</ele>
        <time>2012-10-31T14:24:27</time>
      </trkpt>
      <trkpt lat="47.67862" lon="-2.53164">
        <ele>270</ele>
        <time>2012-10-31T14:24:58</time>
      </trkpt>
      <trkpt lat="47.67855" lon="-2.53158">
        <ele>269</ele>
        <time>2012-10-31T14:25:28</time>
      </trkpt>
      <trkpt lat="47.67857" lon="-2.53167">
        <ele>269</ele>
        <time>2012-10-31T14:25:58</time>
      </trkpt>
      <trkpt lat="47.67857" lon="-2.53165">
        <ele>270</ele>
        <time>2012-10-31T14:26:28</time>
      </trkpt>
      <trkpt lat="47.67842" lon="-2.53126">
        <ele>269</ele>
        <time>2012-10-31T14:26:58</time>
      </trkpt>
      <trkpt lat="47.67823" lon="-2.5308">
        <ele>268</ele>
        <time>2012-10-31T14:27:29</time>
      </trkpt>
      <trkpt lat="47.67796" lon="-2.53041">
        <ele>267</ele>
        <time>2012-10-31T14:27:59</time>
      </trkpt>
      <trkpt lat="47.67771" lon="-2.53008">
        <ele>269</ele>
        <time>2012-10-31T14:28:29</time>
      </trkpt>
      <trkpt lat="47.67764" lon="-2.52954">
        <ele>268</ele>
        <time>2012-10-31T14:28:59</time>
      </trkpt>
      <trkpt lat="47.67753" lon="-2.5292">
        <ele>267</ele>
        <time>2012-10-31T14:29:30</time>
      </trkpt>
      <trkpt lat="47.67757" lon="-2.52913">
        <ele>268</ele>
        <time>2012-10-31T14:30:00</time>
      </trkpt>
      <trkpt lat="47.67759" lon="-2.52888">
        <ele>268</ele>
        <time>2012-10-31T14:30:30</time>
      </trkpt>
      <trkpt lat="47.67776" lon="-2.52859">
        <ele>267</ele>
        <time>2012-10-31T14:31:00</time>
      </trkpt>
      <trkpt lat="47.67788" lon="-2.52817">
        <ele>267</ele>
        <time>2012-10-31T14:31:30</time>
      </trkpt>
      <trkpt lat="47.6778" lon="-2.52777">
        <ele>268</ele>
        <time>2012-10-31T14:32:00</time>
      </trkpt>
      <trkpt lat="47.6777" lon="-2.52726">
        <ele>270</ele>
        <time>2012-10-31T14:32:31</time>
      </trkpt>
      <trkpt lat="47.67772" lon="-2.52685">
        <ele>271</ele>
        <time>2012-10-31T14:33:01</time>
      </trkpt>
      <trkpt lat="47.67783" lon="-2.52655">
        <ele>273</ele>
        <time>2012-10-31T14:33:31</time>
      </trkpt>
      <trkpt lat="47.678" lon="-2.52624">
        <ele>274</ele>
        <time>2012-10-31T14:34:01</time>
      </trkpt>
      <trkpt lat="47.67818" lon="-2.52599">
        <ele>279</ele>
        <time>2012-10-31T14:34:31</time>
      </trkpt>
      <trkpt lat="47.67841" lon="-2.52583">
        <ele>280</ele>
        <time>2012-10-31T14:35:02</time>
      </trkpt>
      <trkpt lat="47.67862" lon="-2.52569">
        <ele>283</ele>
        <time>2012-10-31T14:35:32</time>
      </trkpt>
      <trkpt lat="47.67886" lon="-2.52543">
        <ele>285</ele>
        <time>2012-10-31T14:36:02</time>
      </trkpt>
      <trkpt lat="47.67915" lon="-2.52513">
        <ele>287</ele>
        <time>2012-10-31T14:36:32</time>
      </trkpt>
      <trkpt lat="47.67942" lon="-2.5249">
        <ele>288</ele>
        <time>2012-10-31T14:37:02</time>
      </trkpt>
      <trkpt lat="47.67972" lon="-2.52463">
        <ele>289</ele>
        <time>2012-10-31T14:37:33</time>
      </trkpt>
      <trkpt lat="47.68001" lon="-2.5243">
        <ele>290</ele>
        <time>2012-10-31T14:38:03</time>
      </trkpt>
      <trkpt lat="47.68031" lon="-2.52405">
        <ele>293</ele>
        <time>2012-10-31T14:38:33</time>
      </trkpt>
      <trkpt lat="47.68058" lon="-2.52385">
        <ele>294</ele>
        <time>2012-10-31T14:39:03</time>
      </trkpt>
      <trkpt lat="47.68096" lon="-2.52371">
        <ele>294</ele>
        <time>2012-10-31T14:39:33</time>
      </trkpt>
      <trkpt lat="47.68126" lon="-2.52361">
        <ele>297</ele>
        <time>2012-10-31T14:40:04</time>
      </trkpt>
      <trkpt lat="47.68155" lon="-2.52375">
        <ele>298</ele>
        <time>2012-10-31T14:40:34</time>
      </trkpt>
      <trkpt lat="47.68169" lon="-2.52411">
        <ele>299</ele>
        <time>2012-10-31T14:41:04</time>
      </trkpt>
      <trkpt lat="47.68175" lon="-2.52436">
        <ele>300</ele>
        <time>2012-10-31T14:41:34</time>
      </trkpt>
      <trkpt lat="47.68195" lon="-2.52472">
        <ele>300</ele>
        <time>2012-10-31T14:42:04</time>
      </trkpt>
      <trkpt lat="47.68217" lon="-2.52509">
        <ele>301</ele>
        <time>2012-10-31T14:42:35</time>
      </trkpt>
      <trkpt lat="47.68237" lon="-2.52542">
        <ele>301</ele>
        <time>2012-10-31T14:43:05</time>
      </trkpt>
      <trkpt lat="47.68257" lon="-2.52572">
        <ele>300</ele>
        <time>2012-10-31T14:43:35</time>
      </trkpt>
      <trkpt lat="47.68281" lon="-2.52617">
        <ele>301</ele>
        <time>2012-10-31T14:44:05</time>
      </trkpt>
      <trkpt lat="47.68313" lon="-2.52638">
        <ele>301</ele>
        <time>2012-10-31T14:44:36</time>
      </trkpt>
      <trkpt lat="47.68345" lon="-2.52634">
        <ele>300</ele>
        <time>2012-10-31T14:45:06</time>
      </trkpt>
      <trkpt lat="47.68357" lon="-2.52642">
        <ele>301</ele>
        <time>2012-10-31T14:45:36</time>
      </trkpt>
      <trkpt lat="47.68366" lon="-2.52684">
        <ele>296</ele>
        <time>2012-10-31T14:46:06</time>
      </trkpt>
      <trkpt lat="47.68371" lon="-2.52737">
        <ele>295</ele>
        <time>2012-10-31T14:46:37</time>
      </trkpt>
      <trkpt lat="47.68378" lon="-2.52784">
        <ele>291</ele>
        <time>2012-10-31T14:47:07</time>
      </trkpt>
      <trkpt lat="47.68393" lon="-2.52818">
        <ele>290</ele>
        <time>2012-10-31T14:47:37</time>
      </trkpt>
      <trkpt lat="47.6841" lon="-2.52865">
        <ele>287</ele>
        <time>2012-10-31T14:48:07</time>
      </trkpt>
      <trkpt lat="47.68412" lon="-2.52908">
        <ele>285</ele>
        <time>2012-10-31T14:48:38</time>
      </trkpt>
      <trkpt lat="47.68418" lon="-2.52958">
        <ele>281</ele>
        <time>2012-10-31T14:49:08</time>
      </trkpt>
      <trkpt lat="47.68423" lon="-2.52991">
        <ele>277</ele>
        <time>2012-10-31T14:49:38</time>
      </trkpt>
      <trkpt lat="47.68424" lon="-2.53039">
        <ele>273</ele>
        <time>2012-10-31T14:50:08</time>
      </trkpt>
      <trkpt lat="47.68427" lon="-2.53063">
        <ele>275</ele>
        <time>2012-10-31T14:50:39</time>
      </trkpt>
      <trkpt lat="47.6843" lon="-2.53069">
        <ele>274</ele>
        <time>2012-10-31T14:51:09</time>
      </trkpt>
      <trkpt lat="47.68422" lon="-2.53085">
        <ele>275</ele>
        <time>2012-10-31T14:51:39</time>
      </trkpt>
      <trkpt lat="47.68422" lon="-2.53101">
        <ele>275</ele>
        <time>2012-10-31T14:52:09</time>
      </trkpt>
      <trkpt lat="47.68421" lon="-2.53134">
        <ele>277</ele>
        <time>2012-10-31T14:52:39</time>
      </trkpt>
      <trkpt lat="47.6841" lon="-2.53156">
        <ele>277</ele>
        <time>2012-10-31T14:53:10</time>
      </trkpt>
      <trkpt lat="47.68424" lon="-2.53174">
        <ele>278</ele>
        <time>2012-10-31T14:53:40</time>
      </trkpt>
      <trkpt lat="47.6844" lon="-2.53185">
        <ele>280</ele>
        <time>2012-10-31T14:54:10</time>
      </trkpt>
      <trkpt lat="47.68421" lon="-2.53197">
        <ele>284</ele>
        <time>2012-10-31T14:54:40</time>
      </trkpt>
      <trkpt lat="47.68393" lon="-2.53191">
        <ele>288</ele>
        <time>2012-10-31T14:55:11</time>
      </trkpt>
      <trkpt lat="47.68405" lon="-2.5321">
        <ele>288</ele>
        <time>2012-10-31T14:55:41</time>
      </trkpt>
      <trkpt lat="47.68429" lon="-2.53236">
        <ele>285</ele>
        <time>2012-10-31T14:56:11</time>
      </trkpt>
      <trkpt lat="47.68436" lon="-2.53251">
        <ele>284</ele>
        <time>2012-10-31T14:56:41</time>
      </trkpt>
      <trkpt lat="47.68432" lon="-2.53258">
        <ele>284</ele>
        <time>2012-10-31T14:57:11</time>
      </trkpt>
      <trkpt lat="47.68455" lon="-2.53284">
        <ele>284</ele>
        <time>2012-10-31T14:57:42</time>
      </trkpt>
      <trkpt lat="47.68476" lon="-2.53335">
        <ele>284</ele>
        <time>2012-10-31T14:58:12</time>
      </trkpt>
      <trkpt lat="47.68502" lon="-2.53369">
        <ele>284</ele>
        <time>2012-10-31T14:58:42</time>
      </trkpt>
      <trkpt lat="47.68528" lon="-2.53409">
        <ele>283</ele>
        <time>2012-10-31T14:59:12</time>
      </trkpt>
      <trkpt lat="47.68553" lon="-2.53453">
        <ele>283</ele>
        <time>2012-10-31T14:59:43</time>
      </trkpt>
      <trkpt lat="47.68574" lon="-2.53455">
        <ele>283</ele>
        <time>2012-10-31T15:00:13</time>
      </trkpt>
      <trkpt lat="47.68579" lon="-2.53453">
        <ele>284</ele>
        <time>2012-10-31T15:00:43</time>
      </trkpt>
      <trkpt lat="47.68579" lon="-2.53454">
        <ele>283</ele>
        <time>2012-10-31T15:01:13</time>
      </trkpt>
      <trkpt lat="47.68582" lon="-2.53462">
        <ele>284</ele>
        <time>2012-10-31T15:01:44</time>
      </trkpt>
      <trkpt lat="47.6858" lon="-2.53478">
        <ele>284</ele>
        <time>2012-10-31T15:02:14</time>
      </trkpt>
      <trkpt lat="47.68578" lon="-2.53475">
        <ele>284</ele>
        <time>2012-10-31T15:02:44</time>
      </trkpt>
      <trkpt lat="47.68573" lon="-2.5347">
        <ele>283</ele>
        <time>2012-10-31T15:03:14</time>
      </trkpt>
      <trkpt lat="47.68578" lon="-2.53473">
        <ele>284</ele>
        <time>2012-10-31T15:03:44</time>
      </trkpt>
      <trkpt lat="47.68579" lon="-2.53471">
        <ele>284</ele>
        <time>2012-10-31T15:04:15</time>
      </trkpt>
      <trkpt lat="47.68568" lon="-2.53473">
        <ele>283</ele>
        <time>2012-10-31T15:04:45</time>
      </trkpt>
      <trkpt lat="47.68576" lon="-2.53483">
        <ele>284</ele>
        <time>2012-10-31T15:05:15</time>
      </trkpt>
      <trkpt lat="47.6858" lon="-2.53482">
        <ele>283</ele>
        <time>2012-10-31T15:05:45</time>
      </trkpt>
      <trkpt lat="47.68585" lon="-2.5348">
        <ele>284</ele>
        <time>2012-10-31T15:06:16</time>
      </trkpt>
      <trkpt lat="47.68592" lon="-2.53475">
        <ele>283</ele>
        <time>2012-10-31T15:06:46</time>
      </trkpt>
      <trkpt lat="47.68591" lon="-2.53468">
        <ele>285</ele>
        <time>2012-10-31T15:07:16</time>
      </trkpt>
      <trkpt lat="47.68587" lon="-2.53471">
        <ele>285</ele>
        <time>2012-10-31T15:07:46</time>
      </trkpt>
      <trkpt lat="47.68572" lon="-2.53475">
        <ele>284</ele>
        <time>2012-10-31T15:08:16</time>
      </trkpt>
      <trkpt lat="47.6857" lon="-2.53471">
        <ele>284</ele>
        <time>2012-10-31T15:08:46</time>
      </trkpt>
      <trkpt lat="47.68571" lon="-2.53471">
        <ele>286</ele>
        <time>2012-10-31T15:09:16</time>
      </trkpt>
      <trkpt lat="47.68587" lon="-2.53491">
        <ele>285</ele>
        <time>2012-10-31T15:09:47</time>
      </trkpt>
      <trkpt lat="47.686" lon="-2.53532">
        <ele>285</ele>
        <time>2012-10-31T15:10:17</time>
      </trkpt>
      <trkpt lat="47.68608" lon="-2.53578">
        <ele>287</ele>
        <time>2012-10-31T15:10:47</time>
      </trkpt>
      <trkpt lat="47.68618" lon="-2.53631">
        <ele>288</ele>
        <time>2012-10-31T15:11:17</time>
      </trkpt>
      <trkpt lat="47.68622" lon="-2.53675">
        <ele>290</ele>
        <time>2012-10-31T15:11:48</time>
      </trkpt>
      <trkpt lat="47.6863" lon="-2.53731">
        <ele>293</ele>
        <time>2012-10-31T15:12:18</time>
      </trkpt>
      <trkpt lat="47.68635" lon="-2.53786">
        <ele>293</ele>
        <time>2012-10-31T15:12:48</time>
      </trkpt>
      <trkpt lat="47.68644" lon="-2.53838">
        <ele>295</ele>
        <time>2012-10-31T15:13:18</time>
      </trkpt>
      <trkpt lat="47.68653" lon="-2.53892">
        <ele>295</ele>
        <time>2012-10-31T15:13:48</time>
      </trkpt>
      <trkpt lat="47.68663" lon="-2.53949">
        <ele>297</ele>
        <time>2012-10-31T15:14:19</time>
      </trkpt>
      <trkpt lat="47.68674" lon="-2.54001">
        <ele>297</ele>
        <time>2012-10-31T15:14:49</time>
      </trkpt>
      <trkpt lat="47.68685" lon="-2.5405">
        <ele>295</ele>
        <time>2012-10-31T15:15:19</time>
      </trkpt>
      <trkpt lat="47.68703" lon="-2.54094">
        <ele>295</ele>
        <time>2012-10-31T15:15:49</time>
      </trkpt>
      <trkpt lat="47.68719" lon="-2.54144">
        <ele>294</ele>
        <time>2012-10-31T15:16:20</time>
      </trkpt>
      <trkpt lat="47.68732" lon="-2.54191">
        <ele>295</ele>
        <time>2012-10-31T15:16:50</time>
      </trkpt>
      <trkpt lat="47.68746" lon="-2.54244">
        <ele>296</ele>
        <time>2012-10-31T15:17:20</time>
      </trkpt>
      <trkpt lat="47.68754" lon="-2.54291">
        <ele>296</ele>
        <time>2012-10-31T15:17:50</time>
      </trkpt>
      <trkpt lat="47.68765" lon="-2.54342">
        <ele>297</ele>
        <time>2012-10-31T15:18:20</time>
      </trkpt>
      <trkpt lat="47.68784" lon="-2.54382">
        <ele>296</ele>
        <time>2012-10-31T15:18:51</time>
      </trkpt>
      <trkpt lat="47.68804" lon="-2.54423">
        <ele>297</ele>
        <time>2012-10-31T15:19:21</time>
      </trkpt>
      <trkpt lat="47.68821" lon="-2.54472">
        <ele>298</ele>
        <time>2012-10-31T15:19:51</time>
      </trkpt>
      <trkpt lat="47.68834" lon="-2.54526">
        <ele>298</ele>
        <time>2012-10-31T15:20:21</time>
      </trkpt>
      <trkpt lat="47.68844" lon="-2.5458">
        <ele>298</ele>
        <time>2012-10-31T15:20:52</time>
      </trkpt>
      <trkpt lat="47.68851" lon="-2.54635">
        <ele>299</ele>
        <time>2012-10-31T15:21:22</time>
      </trkpt>
      <trkpt lat="47.68867" lon="-2.54683">
        <ele>299</ele>
        <time>2012-10-31T15:21:52</time>
      </trkpt>
      <trkpt lat="47.68877" lon="-2.54719">
        <ele>297</ele>
        <time>2012-10-31T15:22:22</time>
      </trkpt>
      <trkpt lat="47.68896" lon="-2.54695">
        <ele>296</ele>
        <time>2012-10-31T15:22:52</time>
      </trkpt>
      <trkpt lat="47.68917" lon="-2.54651">
        <ele>295</ele>
        <time>2012-10-31T15:23:23</time>
      </trkpt>
      <trkpt lat="47.68935" lon="-2.54609">
        <ele>295</ele>
        <time>2012-10-31T15:23:53</time>
      </trkpt>
      <trkpt lat="47.68938" lon="-2.54582">
        <ele>292</ele>
        <time>2012-10-31T15:24:23</time>
      </trkpt>
      <trkpt lat="47.68922" lon="-2.54537">
        <ele>293</ele>
        <time>2012-10-31T15:24:53</time>
      </trkpt>
      <trkpt lat="47.68908" lon="-2.5449">
        <ele>293</ele>
        <time>2012-10-31T15:25:24</time>
      </trkpt>
      <trkpt lat="47.68887" lon="-2.54453">
        <ele>292</ele>
        <time>2012-10-31T15:25:54</time>
      </trkpt>
      <trkpt lat="47.68877" lon="-2.54406">
        <ele>293</ele>
        <time>2012-10-31T15:26:24</time>
      </trkpt>
      <trkpt lat="47.68866" lon="-2.54357">
        <ele>292</ele>
        <time>2012-10-31T15:26:54</time>
      </trkpt>
      <trkpt lat="47.68882" lon="-2.54325">
        <ele>294</ele>
        <time>2012-10-31T15:27:24</time>
      </trkpt>
      <trkpt lat="47.68907" lon="-2.54316">
        <ele>294</ele>
        <time>2012-10-31T15:27:55</time>
      </trkpt>
      <trkpt lat="47.68916" lon="-2.54292">
        <ele>295</ele>
        <time>2012-10-31T15:28:15</time>
      </trkpt>
    </trkseg>
  </trk>
</gpx>